createdAt,value
2018-12-20T00:00:45.628Z,9.97
2018-12-20T00:03:13.949Z,9.70
2018-12-20T00:05:42.117Z,10.20
2018-12-20T00:08:10.463Z,9.27
2018-12-20T00:10:38.714Z,10.20
2018-12-20T00:13:07.039Z,10.17
2018-12-20T00:15:35.294Z,10.37
2018-12-20T00:18:03.417Z,9.27
2018-12-20T00:20:31.602Z,9.87
2018-12-20T00:22:59.892Z,9.70
2018-12-20T00:25:28.133Z,8.67
2018-12-20T00:27:56.419Z,9.40
2018-12-20T00:30:24.567Z,10.27
2018-12-20T00:32:52.637Z,10.33
2018-12-20T00:35:20.874Z,11.30
2018-12-20T00:37:49.192Z,10.50
2018-12-20T00:40:17.380Z,10.20
2018-12-20T00:42:45.616Z,10.73
2018-12-20T00:45:13.867Z,11.87
2018-12-20T00:47:42.078Z,10.87
2018-12-20T00:50:10.281Z,10.83
2018-12-20T00:52:38.515Z,10.63
2018-12-20T00:55:06.713Z,11.07
2018-12-20T00:57:34.811Z,10.53
2018-12-20T01:00:03.394Z,9.87
2018-12-20T01:02:31.583Z,9.87
2018-12-20T01:04:59.983Z,12.03
2018-12-20T01:07:28.201Z,11.23
2018-12-20T01:09:56.329Z,11.87
2018-12-20T01:12:24.465Z,11.77
2018-12-20T01:14:52.895Z,11.03
2018-12-20T01:17:21.270Z,11.27
2018-12-20T01:19:49.414Z,11.43
2018-12-20T01:22:17.665Z,12.10
2018-12-20T01:24:45.919Z,12.07
2018-12-20T01:27:14.169Z,11.87
2018-12-20T01:29:42.435Z,10.63
2018-12-20T01:32:10.550Z,12.27
2018-12-20T01:34:38.682Z,12.73
2018-12-20T01:37:06.862Z,13.17
2018-12-20T01:39:35.098Z,11.53
2018-12-20T01:42:03.332Z,12.40
2018-12-20T01:44:31.457Z,12.60
2018-12-20T01:46:59.638Z,11.27
2018-12-20T01:49:28.012Z,11.67
2018-12-20T01:51:56.171Z,13.23
2018-12-20T01:54:24.438Z,12.43
2018-12-20T01:56:52.805Z,12.20
2018-12-20T01:59:21.164Z,13.43
2018-12-20T02:01:49.534Z,11.97
2018-12-20T02:04:17.777Z,12.83
2018-12-20T02:06:46.062Z,12.63
2018-12-20T02:10:17.880Z,11.60
2018-12-20T02:12:46.358Z,11.90
2018-12-20T02:15:14.686Z,12.87
2018-12-20T02:17:43.101Z,13.30
2018-12-20T02:20:11.512Z,12.23
2018-12-20T02:22:39.939Z,14.13
2018-12-20T02:25:08.189Z,13.03
2018-12-20T02:27:36.490Z,12.73
2018-12-20T02:30:05.208Z,12.87
2018-12-20T02:32:33.391Z,11.60
2018-12-20T02:35:01.723Z,12.63
2018-12-20T02:37:30.097Z,13.73
2018-12-20T02:39:58.440Z,13.00
2018-12-20T02:42:26.799Z,14.20
2018-12-20T02:44:55.035Z,13.27
2018-12-20T02:47:27.675Z,12.67
2018-12-20T02:49:55.928Z,12.93
2018-12-20T02:52:24.093Z,12.53
2018-12-20T02:54:52.235Z,12.73
2018-12-20T02:57:20.356Z,12.73
2018-12-20T02:59:48.908Z,11.00
2018-12-20T03:02:17.220Z,13.40
2018-12-20T03:04:45.585Z,13.47
2018-12-20T03:07:13.895Z,12.57
2018-12-20T03:09:42.126Z,12.90
2018-12-20T03:12:10.344Z,12.80
2018-12-20T03:14:38.721Z,14.30
2018-12-20T03:17:07.358Z,15.00
2018-12-20T03:19:35.664Z,13.90
2018-12-20T03:22:04.242Z,13.20
2018-12-20T03:24:32.727Z,14.10
2018-12-20T03:27:01.135Z,11.77
2018-12-20T03:29:29.659Z,12.17
2018-12-20T03:31:57.991Z,14.33
2018-12-20T03:34:26.472Z,13.13
2018-12-20T03:36:54.780Z,12.53
2018-12-20T03:39:23.212Z,13.87
2018-12-20T03:41:51.523Z,14.47
2018-12-20T03:44:19.656Z,14.20
2018-12-20T03:46:48.841Z,15.27
2018-12-20T03:49:20.341Z,13.47
2018-12-20T03:51:48.831Z,11.30
2018-12-20T03:54:17.351Z,15.00
2018-12-20T03:56:46.941Z,13.47
2018-12-20T03:59:16.620Z,13.43
2018-12-20T04:01:46.813Z,14.50
2018-12-20T04:04:15.050Z,14.13
2018-12-20T04:06:43.325Z,14.77
2018-12-20T04:09:11.722Z,12.70
2018-12-20T04:11:40.290Z,14.43
2018-12-20T04:14:08.589Z,15.13
2018-12-20T04:16:36.956Z,13.37
2018-12-20T04:19:06.404Z,14.60
2018-12-20T04:21:34.757Z,13.80
2018-12-20T04:24:03.229Z,14.23
2018-12-20T04:26:31.698Z,14.03
2018-12-20T04:29:00.074Z,15.80
2018-12-20T04:31:28.275Z,14.20
2018-12-20T04:33:56.529Z,19.42
2018-12-20T04:36:24.765Z,16.93
2018-12-20T04:38:53.038Z,15.27
2018-12-20T04:41:21.245Z,14.03
2018-12-20T04:43:49.810Z,15.07
2018-12-20T04:46:18.067Z,14.50
2018-12-20T04:48:46.564Z,14.93
2018-12-20T04:51:14.874Z,13.10
2018-12-20T04:53:43.248Z,15.03
2018-12-20T04:56:11.536Z,14.57
2018-12-20T04:58:39.856Z,13.90
2018-12-20T05:01:08.015Z,13.77
2018-12-20T05:03:36.381Z,13.50
2018-12-20T05:06:04.780Z,12.83
2018-12-20T05:08:33.284Z,14.90
2018-12-20T05:11:01.657Z,12.80
2018-12-20T05:13:29.808Z,13.10
2018-12-20T05:15:58.057Z,14.10
2018-12-20T05:18:26.239Z,13.30
2018-12-20T05:20:54.596Z,14.87
2018-12-20T05:23:23.075Z,15.43
2018-12-20T05:25:51.576Z,14.07
2018-12-20T05:28:19.811Z,13.80
2018-12-20T05:30:47.999Z,13.33
2018-12-20T05:33:16.384Z,13.60
2018-12-20T05:35:44.867Z,13.47
2018-12-20T05:38:13.270Z,12.80
2018-12-20T05:40:41.632Z,14.90
2018-12-20T05:43:09.915Z,14.37
2018-12-20T05:45:38.080Z,15.27
2018-12-20T05:48:06.610Z,16.13
2018-12-20T05:50:34.980Z,13.77
2018-12-20T05:53:03.331Z,13.20
2018-12-20T05:55:32.622Z,12.63
2018-12-20T05:58:00.820Z,13.93
2018-12-20T06:00:29.081Z,13.53
2018-12-20T06:02:57.477Z,13.37
2018-12-20T06:05:25.895Z,13.20
2018-12-20T06:07:54.320Z,12.57
2018-12-20T06:10:22.599Z,13.30
2018-12-20T06:12:50.828Z,12.63
2018-12-20T06:15:18.969Z,14.43
2018-12-20T06:17:47.477Z,13.03
2018-12-20T06:20:16.037Z,12.73
2018-12-20T06:22:44.297Z,13.80
2018-12-20T06:25:12.551Z,13.83
2018-12-20T06:27:40.669Z,13.70
2018-12-20T06:30:08.833Z,14.60
2018-12-20T06:32:37.005Z,12.37
2018-12-20T06:35:05.198Z,12.50
2018-12-20T06:37:33.396Z,12.00
2018-12-20T06:40:01.507Z,16.50
2018-12-20T06:42:29.705Z,13.57
2018-12-20T06:44:57.900Z,14.67
2018-12-20T06:47:26.059Z,15.07
2018-12-20T06:49:54.317Z,15.13
2018-12-20T06:52:22.651Z,13.80
2018-12-20T06:54:50.781Z,14.37
2018-12-20T06:57:18.948Z,13.77
2018-12-20T07:00:50.582Z,13.13
2018-12-20T07:03:18.733Z,14.03
2018-12-20T07:05:46.922Z,14.40
2018-12-20T07:08:15.014Z,14.20
2018-12-20T07:11:46.238Z,14.47
2018-12-20T07:14:14.281Z,12.37
2018-12-20T07:16:42.484Z,13.23
2018-12-20T07:19:10.965Z,13.77
2018-12-20T07:21:39.125Z,12.80
2018-12-20T07:24:07.335Z,13.73
2018-12-20T07:26:35.587Z,14.40
2018-12-20T07:29:03.874Z,15.77
2018-12-20T07:31:32.090Z,13.67
2018-12-20T07:34:00.309Z,16.17
2018-12-20T07:36:28.562Z,12.97
2018-12-20T07:38:56.791Z,13.73
2018-12-20T07:41:24.929Z,13.87
2018-12-20T07:43:53.092Z,14.50
2018-12-20T07:46:21.260Z,13.70
2018-12-20T07:48:49.418Z,14.33
2018-12-20T07:51:17.668Z,14.17
2018-12-20T07:53:45.791Z,14.97
2018-12-20T07:56:13.968Z,14.67
2018-12-20T07:58:42.086Z,14.73
2018-12-20T08:01:10.209Z,15.03
2018-12-20T08:03:38.785Z,12.43
2018-12-20T08:06:07.661Z,21.25
2018-12-20T08:08:45.368Z,15.17
2018-12-20T08:11:32.669Z,14.40
2018-12-20T08:14:00.791Z,13.73
2018-12-20T08:16:28.980Z,14.37
2018-12-20T08:18:57.150Z,13.03
2018-12-20T08:21:25.378Z,14.83
2018-12-20T08:23:53.643Z,13.87
2018-12-20T08:26:21.762Z,15.73
2018-12-20T08:28:50.025Z,15.07
2018-12-20T08:31:18.172Z,14.23
2018-12-20T08:33:46.393Z,14.97
2018-12-20T08:36:14.737Z,15.73
2018-12-20T08:38:42.962Z,14.17
2018-12-20T08:41:11.111Z,14.27
2018-12-20T08:43:39.276Z,13.93
2018-12-20T08:46:07.497Z,12.67
2018-12-20T08:48:35.643Z,15.37
2018-12-20T08:51:03.881Z,12.93
2018-12-20T08:53:32.086Z,15.97
2018-12-20T08:56:00.310Z,14.43
2018-12-20T08:58:28.462Z,13.70
2018-12-20T09:00:56.623Z,13.20
2018-12-20T09:03:24.913Z,15.00
2018-12-20T09:05:53.065Z,13.80
2018-12-20T09:08:21.353Z,13.87
2018-12-20T09:10:49.413Z,15.07
2018-12-20T09:13:17.601Z,14.23
2018-12-20T09:15:45.831Z,14.40
2018-12-20T09:18:13.994Z,14.60
2018-12-20T09:20:42.226Z,14.70
2018-12-20T09:23:10.400Z,12.20
2018-12-20T09:25:38.523Z,14.47
2018-12-20T09:28:06.767Z,14.37
2018-12-20T09:30:34.910Z,12.33
2018-12-20T09:33:03.877Z,13.13
2018-12-20T09:35:32.140Z,13.23
2018-12-20T09:38:05.917Z,12.43
2018-12-20T09:40:34.173Z,13.70
2018-12-20T09:43:02.493Z,14.60
2018-12-20T09:45:30.606Z,13.90
2018-12-20T09:48:04.183Z,12.97
2018-12-20T09:50:32.450Z,13.57
2018-12-20T09:53:00.681Z,12.83
2018-12-20T09:55:28.887Z,12.23
2018-12-20T09:57:56.931Z,12.90
2018-12-20T10:00:25.087Z,14.20
2018-12-20T10:02:53.298Z,14.33
2018-12-20T10:05:21.433Z,12.83
2018-12-20T10:07:49.584Z,13.07
2018-12-20T10:10:17.691Z,14.37
2018-12-20T10:12:45.916Z,12.57
2018-12-20T10:15:14.166Z,15.10
2018-12-20T10:17:42.746Z,13.17
2018-12-20T10:20:15.377Z,13.57
2018-12-20T10:22:43.585Z,12.77
2018-12-20T10:25:11.769Z,13.33
2018-12-20T10:27:39.971Z,13.77
2018-12-20T10:30:10.483Z,13.30
2018-12-20T10:32:38.666Z,12.60
2018-12-20T10:35:06.820Z,13.87
2018-12-20T10:37:34.986Z,13.70
2018-12-20T10:40:03.356Z,12.57
2018-12-20T10:42:31.445Z,13.70
2018-12-20T10:44:59.614Z,12.97
2018-12-20T10:47:29.526Z,12.13
2018-12-20T10:49:57.918Z,14.43
2018-12-20T10:52:26.311Z,13.17
2018-12-20T10:54:54.532Z,13.57
2018-12-20T10:57:22.761Z,12.10
2018-12-20T10:59:50.915Z,12.10
2018-12-20T11:02:24.462Z,13.20
2018-12-20T11:04:58.077Z,12.83
2018-12-20T11:07:31.810Z,13.47
2018-12-20T11:10:05.508Z,11.57
2018-12-20T11:12:39.180Z,11.80
2018-12-20T11:15:07.503Z,12.77
2018-12-20T11:17:37.560Z,13.27
2018-12-20T11:20:05.954Z,13.47
2018-12-20T11:22:34.206Z,11.47
2018-12-20T11:25:02.442Z,13.93
2018-12-20T11:27:30.678Z,11.57
2018-12-20T11:29:58.707Z,11.70
2018-12-20T11:32:26.862Z,13.53
2018-12-20T11:34:55.004Z,12.20
2018-12-20T11:37:23.114Z,13.07
2018-12-20T11:39:59.195Z,11.43
2018-12-20T11:42:21.392Z,11.77
2018-12-20T11:44:49.517Z,12.60
2018-12-20T11:47:23.109Z,13.10
2018-12-20T11:49:51.225Z,12.73
2018-12-20T11:52:19.425Z,12.40
2018-12-20T11:54:47.621Z,12.83
2018-12-20T11:57:15.819Z,11.10
2018-12-20T11:59:43.941Z,11.50
2018-12-20T12:02:12.160Z,12.13
2018-12-20T12:04:40.329Z,11.33
2018-12-20T12:07:08.455Z,11.10
2018-12-20T12:09:36.626Z,12.60
2018-12-20T12:12:04.853Z,12.63
2018-12-20T12:14:33.033Z,12.90
2018-12-20T12:17:01.217Z,11.30
2018-12-20T12:19:29.410Z,11.67
2018-12-20T12:21:57.642Z,11.23
2018-12-20T12:24:25.789Z,13.00
2018-12-20T12:26:54.022Z,13.33
2018-12-20T12:29:22.349Z,11.83
2018-12-20T12:31:50.513Z,12.40
2018-12-20T12:34:18.793Z,11.63
2018-12-20T12:36:47.914Z,12.23
2018-12-20T12:39:16.070Z,11.23
2018-12-20T12:41:44.258Z,11.57
2018-12-20T12:44:12.457Z,11.17
2018-12-20T12:46:40.618Z,12.27
2018-12-20T12:49:08.798Z,13.43
2018-12-20T12:51:38.007Z,13.17
2018-12-20T12:54:06.150Z,11.93
2018-12-20T12:56:34.372Z,13.07
2018-12-20T12:59:02.545Z,13.00
2018-12-20T13:01:30.691Z,12.17
2018-12-20T13:03:58.975Z,11.87
2018-12-20T13:06:27.131Z,11.50
2018-12-20T13:08:55.312Z,11.87
2018-12-20T13:11:23.379Z,11.57
2018-12-20T13:13:51.533Z,11.87
2018-12-20T13:16:19.742Z,10.60
2018-12-20T13:18:47.886Z,11.27
2018-12-20T13:21:16.573Z,11.77
2018-12-20T13:23:44.801Z,11.43
2018-12-20T13:26:12.936Z,12.73
2018-12-20T13:28:41.083Z,11.17
2018-12-20T13:31:09.278Z,11.07
2018-12-20T13:33:37.498Z,10.77
2018-12-20T13:36:05.838Z,10.90
2018-12-20T13:38:34.024Z,12.27
2018-12-20T13:41:02.148Z,11.67
2018-12-20T13:43:30.407Z,12.43
2018-12-20T13:45:58.541Z,10.43
2018-12-20T13:48:26.710Z,10.13
2018-12-20T13:50:54.902Z,10.03
2018-12-20T13:53:23.038Z,11.63
2018-12-20T13:55:51.218Z,11.67
2018-12-20T13:58:23.583Z,10.20
2018-12-20T14:00:51.716Z,11.00
2018-12-20T14:03:19.849Z,11.50
2018-12-20T14:05:48.023Z,11.13
2018-12-20T14:08:16.242Z,11.33
2018-12-20T14:10:44.338Z,10.77
2018-12-20T14:13:12.490Z,10.03
2018-12-20T14:15:40.610Z,10.87
2018-12-20T14:18:08.802Z,10.70
2018-12-20T14:20:36.998Z,10.67
2018-12-20T14:23:05.154Z,11.83
2018-12-20T14:25:33.374Z,11.17
2018-12-20T14:28:01.504Z,11.17
2018-12-20T14:30:29.685Z,9.83
2018-12-20T14:32:57.896Z,10.10
2018-12-20T14:35:26.039Z,10.77
2018-12-20T14:37:54.107Z,11.37
2018-12-20T14:40:22.278Z,10.93
2018-12-20T14:42:50.404Z,9.63
2018-12-20T14:45:18.634Z,10.93
2018-12-20T14:47:46.841Z,10.60
2018-12-20T14:50:15.063Z,12.30
2018-12-20T14:52:43.242Z,11.00
2018-12-20T14:55:11.425Z,10.20
2018-12-20T14:57:39.696Z,10.70
2018-12-20T15:00:09.718Z,9.97
2018-12-20T15:02:37.884Z,9.23
2018-12-20T15:05:06.886Z,10.93
2018-12-20T15:07:35.071Z,10.70
2018-12-20T15:10:04.151Z,10.00
2018-12-20T15:12:32.355Z,9.30
2018-12-20T15:15:00.431Z,10.93
2018-12-20T15:17:28.560Z,9.50
2018-12-20T15:19:56.750Z,10.40
2018-12-20T15:22:24.963Z,11.30
2018-12-20T15:24:53.199Z,10.77
2018-12-20T15:27:21.483Z,11.10
2018-12-20T15:29:49.651Z,9.67
2018-12-20T15:32:17.826Z,10.20
2018-12-20T15:34:45.990Z,11.60
2018-12-20T15:37:14.171Z,10.27
2018-12-20T15:39:42.353Z,10.20
2018-12-20T15:42:11.163Z,10.17
2018-12-20T15:44:40.358Z,9.83
2018-12-20T15:47:08.826Z,10.30
2018-12-20T15:49:41.967Z,9.90
2018-12-20T15:52:07.273Z,11.40
2018-12-20T15:54:35.331Z,9.17
2018-12-20T15:57:03.556Z,9.77
2018-12-20T15:59:31.765Z,9.27
2018-12-20T16:01:59.966Z,9.03
2018-12-20T16:04:29.666Z,10.07
2018-12-20T16:06:58.055Z,9.53
2018-12-20T16:09:26.136Z,9.07
2018-12-20T16:11:54.215Z,10.47
2018-12-20T16:14:22.596Z,10.47
2018-12-20T16:16:50.809Z,10.53
2018-12-20T16:19:19.208Z,9.77
2018-12-20T16:21:47.362Z,10.23
2018-12-20T16:24:15.599Z,10.47
2018-12-20T16:29:42.252Z,9.73
2018-12-20T16:32:10.363Z,10.17
2018-12-20T16:34:38.624Z,10.40
2018-12-20T16:37:06.840Z,10.17
2018-12-20T16:39:36.001Z,9.83
2018-12-20T16:42:04.176Z,10.10
2018-12-20T16:44:32.318Z,10.13
2018-12-20T16:47:00.551Z,10.77
2018-12-20T16:49:28.708Z,10.20
2018-12-20T16:51:56.870Z,9.93
2018-12-20T16:54:25.030Z,10.30
2018-12-20T16:56:53.351Z,10.30
2018-12-20T16:59:21.514Z,9.07
2018-12-20T17:01:49.686Z,10.17
2018-12-20T17:04:17.870Z,10.00
2018-12-20T17:06:46.036Z,9.97
2018-12-20T17:09:14.256Z,10.00
2018-12-20T17:11:42.474Z,10.13
2018-12-20T17:14:10.625Z,9.27
2018-12-20T17:16:38.879Z,9.63
2018-12-20T17:19:07.118Z,9.77
2018-12-20T17:21:35.343Z,9.37
2018-12-20T17:24:03.452Z,9.60
2018-12-20T17:26:31.706Z,10.23
2018-12-20T17:28:59.840Z,10.80
2018-12-20T17:31:28.107Z,9.73
2018-12-20T17:33:56.243Z,10.07
2018-12-20T17:36:24.472Z,10.33
2018-12-20T17:38:52.621Z,10.00
2018-12-20T17:41:20.879Z,8.57
2018-12-20T17:43:49.070Z,10.23
2018-12-20T17:46:17.251Z,11.03
2018-12-20T17:48:45.449Z,10.53
2018-12-20T17:51:13.670Z,9.10
2018-12-20T17:53:41.900Z,10.13
2018-12-20T17:56:10.020Z,11.13
2018-12-20T17:58:38.300Z,10.13
2018-12-20T18:01:06.614Z,10.33
2018-12-20T18:03:34.780Z,9.87
2018-12-20T18:06:02.959Z,9.93
2018-12-20T18:08:31.160Z,9.23
2018-12-20T18:10:59.367Z,9.07
2018-12-20T18:13:27.585Z,9.93
2018-12-20T18:15:55.751Z,9.70
2018-12-20T18:18:23.933Z,9.83
2018-12-20T18:20:52.079Z,10.30
2018-12-20T18:23:20.404Z,10.50
2018-12-20T18:25:48.634Z,10.37
2018-12-20T18:28:16.808Z,9.63
2018-12-20T18:30:45.005Z,10.53
2018-12-20T18:33:13.163Z,10.37
2018-12-20T18:35:41.369Z,9.97
2018-12-20T18:38:09.563Z,10.37
2018-12-20T18:40:38.768Z,9.80
2018-12-20T18:43:07.002Z,8.63
2018-12-20T18:45:35.190Z,9.90
2018-12-20T18:48:03.327Z,9.90
2018-12-20T18:50:31.567Z,10.57
2018-12-20T18:52:59.681Z,9.83
2018-12-20T18:55:28.843Z,8.97
2018-12-20T18:57:56.948Z,9.07
2018-12-20T19:00:25.339Z,8.07
2018-12-20T19:02:53.534Z,10.07
2018-12-20T19:05:21.758Z,10.70
2018-12-20T19:07:50.353Z,11.37
2018-12-20T19:10:20.326Z,10.03
2018-12-20T19:12:48.478Z,9.57
2018-12-20T19:15:16.647Z,11.07
2018-12-20T19:17:44.892Z,11.00
2018-12-20T19:20:16.383Z,10.63
2018-12-20T19:22:43.236Z,10.20
2018-12-20T19:25:11.421Z,10.43
2018-12-20T19:27:39.554Z,10.73
2018-12-20T19:30:09.941Z,10.67
2018-12-20T19:32:38.188Z,8.97
2018-12-20T19:35:06.938Z,13.53
2018-12-20T19:37:35.194Z,10.23
2018-12-20T19:40:06.325Z,9.47
2018-12-20T19:42:34.616Z,10.30
2018-12-20T19:45:03.053Z,9.83
2018-12-20T19:47:31.228Z,10.27
2018-12-20T19:50:04.776Z,9.30
2018-12-20T19:52:29.512Z,9.70
2018-12-20T19:54:57.721Z,10.00
2018-12-20T19:57:25.870Z,8.97
2018-12-20T19:59:54.079Z,10.67
2018-12-20T20:02:22.210Z,9.13
2018-12-20T20:04:50.387Z,9.63
2018-12-20T20:07:18.554Z,9.67
2018-12-20T20:09:46.757Z,10.20
2018-12-20T20:12:15.004Z,9.13
2018-12-20T20:14:43.178Z,9.83
2018-12-20T20:17:11.350Z,8.67
2018-12-20T20:19:39.526Z,9.27
2018-12-20T20:22:07.774Z,9.70
2018-12-20T20:24:35.988Z,8.27
2018-12-20T20:27:04.109Z,10.10
2018-12-20T20:29:32.274Z,8.30
2018-12-20T20:32:00.431Z,8.93
2018-12-20T20:34:28.608Z,9.23
2018-12-20T20:36:56.877Z,9.67
2018-12-20T20:39:25.158Z,9.77
2018-12-20T20:41:53.433Z,9.07
2018-12-20T20:44:21.685Z,9.10
2018-12-20T20:46:49.948Z,9.87
2018-12-20T20:49:18.167Z,9.37
2018-12-20T20:51:46.318Z,11.40
2018-12-20T20:54:14.523Z,9.30
2018-12-20T20:56:42.691Z,10.03
2018-12-20T20:59:10.867Z,8.77
2018-12-20T21:01:40.040Z,9.60
2018-12-20T21:04:08.204Z,9.07
2018-12-20T21:06:36.414Z,7.30
2018-12-20T21:09:06.810Z,8.77
2018-12-20T21:11:41.294Z,7.93
2018-12-20T21:14:13.582Z,7.50
2018-12-20T21:16:46.086Z,9.20
2018-12-20T21:19:15.286Z,7.10
2018-12-20T21:21:44.430Z,8.13
2018-12-20T21:24:12.591Z,9.20
2018-12-20T21:26:41.695Z,9.77
2018-12-20T21:29:10.404Z,7.77
2018-12-20T21:31:38.630Z,8.20
2018-12-20T21:34:06.805Z,8.13
2018-12-20T21:36:35.067Z,8.47
2018-12-20T21:39:04.888Z,7.83
2018-12-20T21:41:33.090Z,7.73
2018-12-20T21:44:01.217Z,8.03
2018-12-20T21:46:29.398Z,9.17
2018-12-20T21:48:57.567Z,9.27
2018-12-20T21:51:25.744Z,8.47
2018-12-20T21:53:55.015Z,7.73
2018-12-20T21:57:45.036Z,7.63
2018-12-20T22:00:13.235Z,8.57
2018-12-20T22:02:41.451Z,6.77
2018-12-20T22:05:09.662Z,7.37
2018-12-20T22:07:37.877Z,7.40
2018-12-20T22:10:07.027Z,7.57
2018-12-20T22:12:35.279Z,8.07
2018-12-20T22:15:03.803Z,7.67
2018-12-20T22:17:32.010Z,8.30
2018-12-20T22:20:00.154Z,7.33
2018-12-20T22:22:28.393Z,7.37
2018-12-20T22:24:56.582Z,7.03
2018-12-20T22:27:24.774Z,6.40
2018-12-20T22:29:53.021Z,6.80
2018-12-20T22:32:21.139Z,7.03
2018-12-20T22:34:49.337Z,6.07
2018-12-20T22:37:17.505Z,6.80
2018-12-20T22:39:47.247Z,7.40
2018-12-20T22:42:15.478Z,7.00
2018-12-20T22:44:43.713Z,6.13
2018-12-20T22:47:11.921Z,5.77
2018-12-20T22:49:40.012Z,5.40
2018-12-20T22:52:08.187Z,5.63
2018-12-20T22:54:36.394Z,6.23
2018-12-20T22:57:04.607Z,5.93
2018-12-20T22:59:32.839Z,5.87
2018-12-20T23:02:01.218Z,5.50
2018-12-20T23:04:29.374Z,5.23
2018-12-20T23:06:57.528Z,5.80
2018-12-20T23:09:25.712Z,4.90
2018-12-20T23:11:53.874Z,5.80
2018-12-20T23:14:22.045Z,4.80
2018-12-20T23:16:53.831Z,4.80
2018-12-20T23:19:20.489Z,4.80
2018-12-20T23:21:48.606Z,5.27
2018-12-20T23:24:16.789Z,5.63
2018-12-20T23:26:44.962Z,4.50
2018-12-20T23:29:13.179Z,4.60
2018-12-20T23:31:41.315Z,4.23
2018-12-20T23:34:09.513Z,4.90
2018-12-20T23:36:37.666Z,5.63
2018-12-20T23:39:06.439Z,5.03
2018-12-20T23:41:34.647Z,4.00
2018-12-20T23:44:02.811Z,5.43
2018-12-20T23:46:30.997Z,6.40
2018-12-20T23:48:59.133Z,4.80
2018-12-20T23:51:27.439Z,4.43
2018-12-20T23:53:55.578Z,4.60
2018-12-20T23:56:23.675Z,4.60
2018-12-20T23:58:51.865Z,4.57
